sensor_id;sensor_type;location;lat;lon;timestamp;P1;durP1;ratioP1;P2;durP2;ratioP2
5995;SDS011;3026;53.612;7.278;2023-06-04T00:00:24;6.30;;;2.70;;
5995;SDS011;3026;53.612;7.278;2023-06-04T00:02:52;6.53;;;2.83;;
5995;SDS011;3026;53.612;7.278;2023-06-04T00:05:20;5.00;;;2.50;;
5995;SDS011;3026;53.612;7.278;2023-06-04T00:07:50;5.07;;;2.87;;
5995;SDS011;3026;53.612;7.278;2023-06-04T00:10:17;4.07;;;2.50;;
5995;SDS011;3026;53.612;7.278;2023-06-04T00:12:44;5.70;;;2.20;;
5995;SDS011;3026;53.612;7.278;2023-06-04T00:15:10;5.70;;;2.43;;
5995;SDS011;3026;53.612;7.278;2023-06-04T00:17:39;6.50;;;2.60;;
5995;SDS011;3026;53.612;7.278;2023-06-04T00:20:07;7.07;;;2.47;;
5995;SDS011;3026;53.612;7.278;2023-06-04T00:22:36;4.10;;;2.50;;
5995;SDS011;3026;53.612;7.278;2023-06-04T00:25:03;5.30;;;2.67;;
5995;SDS011;3026;53.612;7.278;2023-06-04T00:27:30;5.33;;;2.60;;
5995;SDS011;3026;53.612;7.278;2023-06-04T00:29:57;6.27;;;3.10;;
5995;SDS011;3026;53.612;7.278;2023-06-04T00:32:24;7.53;;;2.70;;
5995;SDS011;3026;53.612;7.278;2023-06-04T00:34:51;5.80;;;2.80;;
5995;SDS011;3026;53.612;7.278;2023-06-04T00:37:18;5.33;;;2.63;;
5995;SDS011;3026;53.612;7.278;2023-06-04T00:39:46;2.90;;;2.60;;
5995;SDS011;3026;53.612;7.278;2023-06-04T00:42:13;3.93;;;2.30;;
5995;SDS011;3026;53.612;7.278;2023-06-04T00:44:40;5.53;;;2.40;;
5995;SDS011;3026;53.612;7.278;2023-06-04T00:47:09;3.53;;;2.20;;
5995;SDS011;3026;53.612;7.278;2023-06-04T00:49:36;4.13;;;2.43;;
5995;SDS011;3026;53.612;7.278;2023-06-04T00:52:04;3.63;;;2.20;;
5995;SDS011;3026;53.612;7.278;2023-06-04T00:54:31;5.03;;;2.50;;
5995;SDS011;3026;53.612;7.278;2023-06-04T00:57:00;8.27;;;2.60;;
5995;SDS011;3026;53.612;7.278;2023-06-04T00:59:27;7.20;;;2.60;;
5995;SDS011;3026;53.612;7.278;2023-06-04T01:01:58;5.20;;;2.43;;
5995;SDS011;3026;53.612;7.278;2023-06-04T01:04:29;6.13;;;2.47;;
5995;SDS011;3026;53.612;7.278;2023-06-04T01:07:00;4.07;;;2.40;;
5995;SDS011;3026;53.612;7.278;2023-06-04T01:09:30;3.53;;;2.40;;
5995;SDS011;3026;53.612;7.278;2023-06-04T01:11:57;6.87;;;2.43;;
5995;SDS011;3026;53.612;7.278;2023-06-04T01:14:25;3.97;;;2.30;;
5995;SDS011;3026;53.612;7.278;2023-06-04T01:16:54;4.90;;;2.50;;
5995;SDS011;3026;53.612;7.278;2023-06-04T01:19:45;6.37;;;2.73;;
5995;SDS011;3026;53.612;7.278;2023-06-04T01:22:39;6.17;;;2.90;;
5995;SDS011;3026;53.612;7.278;2023-06-04T01:25:12;3.17;;;2.73;;
5995;SDS011;3026;53.612;7.278;2023-06-04T01:27:44;4.77;;;3.03;;
5995;SDS011;3026;53.612;7.278;2023-06-04T01:30:16;2.37;;;2.17;;
5995;SDS011;3026;53.612;7.278;2023-06-04T01:32:44;4.23;;;2.50;;
5995;SDS011;3026;53.612;7.278;2023-06-04T01:35:11;4.80;;;2.67;;
5995;SDS011;3026;53.612;7.278;2023-06-04T01:37:39;3.37;;;2.67;;
5995;SDS011;3026;53.612;7.278;2023-06-04T01:40:06;6.23;;;2.70;;
5995;SDS011;3026;53.612;7.278;2023-06-04T01:42:34;4.73;;;3.00;;
5995;SDS011;3026;53.612;7.278;2023-06-04T01:45:01;3.20;;;2.73;;
5995;SDS011;3026;53.612;7.278;2023-06-04T01:47:29;6.60;;;3.00;;
5995;SDS011;3026;53.612;7.278;2023-06-04T01:49:56;6.83;;;3.70;;
5995;SDS011;3026;53.612;7.278;2023-06-04T01:52:23;5.73;;;3.30;;
5995;SDS011;3026;53.612;7.278;2023-06-04T01:54:50;7.37;;;3.50;;
5995;SDS011;3026;53.612;7.278;2023-06-04T01:57:17;6.93;;;3.90;;
5995;SDS011;3026;53.612;7.278;2023-06-04T01:59:44;6.00;;;3.80;;
5995;SDS011;3026;53.612;7.278;2023-06-04T02:02:11;4.20;;;3.60;;
5995;SDS011;3026;53.612;7.278;2023-06-04T02:04:40;5.43;;;3.80;;
5995;SDS011;3026;53.612;7.278;2023-06-04T02:07:08;4.77;;;3.50;;
5995;SDS011;3026;53.612;7.278;2023-06-04T02:09:34;4.67;;;3.80;;
5995;SDS011;3026;53.612;7.278;2023-06-04T02:12:01;4.83;;;3.87;;
5995;SDS011;3026;53.612;7.278;2023-06-04T02:14:29;7.00;;;3.97;;
5995;SDS011;3026;53.612;7.278;2023-06-04T02:16:55;4.33;;;3.70;;
5995;SDS011;3026;53.612;7.278;2023-06-04T02:19:23;4.50;;;3.40;;
5995;SDS011;3026;53.612;7.278;2023-06-04T02:21:52;4.63;;;3.50;;
5995;SDS011;3026;53.612;7.278;2023-06-04T02:24:19;5.13;;;3.50;;
5995;SDS011;3026;53.612;7.278;2023-06-04T02:26:46;5.23;;;3.30;;
5995;SDS011;3026;53.612;7.278;2023-06-04T02:29:13;5.07;;;3.33;;
5995;SDS011;3026;53.612;7.278;2023-06-04T02:31:40;3.97;;;3.23;;
5995;SDS011;3026;53.612;7.278;2023-06-04T02:34:06;6.67;;;4.13;;
5995;SDS011;3026;53.612;7.278;2023-06-04T02:36:33;4.27;;;3.13;;
5995;SDS011;3026;53.612;7.278;2023-06-04T02:39:02;5.97;;;3.50;;
5995;SDS011;3026;53.612;7.278;2023-06-04T02:41:29;4.30;;;3.33;;
5995;SDS011;3026;53.612;7.278;2023-06-04T02:43:55;6.03;;;3.20;;
5995;SDS011;3026;53.612;7.278;2023-06-04T02:46:22;3.30;;;2.83;;
5995;SDS011;3026;53.612;7.278;2023-06-04T02:48:49;3.90;;;3.20;;
5995;SDS011;3026;53.612;7.278;2023-06-04T02:51:15;3.83;;;3.10;;
5995;SDS011;3026;53.612;7.278;2023-06-04T02:53:42;4.00;;;3.37;;
5995;SDS011;3026;53.612;7.278;2023-06-04T02:56:11;5.93;;;3.00;;
5995;SDS011;3026;53.612;7.278;2023-06-04T02:58:48;4.37;;;2.63;;
5995;SDS011;3026;53.612;7.278;2023-06-04T03:01:17;6.47;;;2.70;;
5995;SDS011;3026;53.612;7.278;2023-06-04T03:03:45;4.37;;;2.47;;
5995;SDS011;3026;53.612;7.278;2023-06-04T03:06:12;2.50;;;2.17;;
5995;SDS011;3026;53.612;7.278;2023-06-04T03:08:39;4.37;;;2.60;;
5995;SDS011;3026;53.612;7.278;2023-06-04T03:11:06;2.90;;;2.20;;
5995;SDS011;3026;53.612;7.278;2023-06-04T03:13:34;3.73;;;2.23;;
5995;SDS011;3026;53.612;7.278;2023-06-04T03:16:01;4.03;;;2.40;;
5995;SDS011;3026;53.612;7.278;2023-06-04T03:18:28;4.07;;;2.63;;
5995;SDS011;3026;53.612;7.278;2023-06-04T03:20:56;4.93;;;2.57;;
5995;SDS011;3026;53.612;7.278;2023-06-04T03:23:22;7.53;;;2.90;;
5995;SDS011;3026;53.612;7.278;2023-06-04T03:25:49;4.43;;;2.87;;
5995;SDS011;3026;53.612;7.278;2023-06-04T03:28:16;8.17;;;2.90;;
5995;SDS011;3026;53.612;7.278;2023-06-04T03:30:44;8.87;;;2.93;;
5995;SDS011;3026;53.612;7.278;2023-06-04T03:33:11;5.07;;;2.60;;
5995;SDS011;3026;53.612;7.278;2023-06-04T03:35:39;2.77;;;2.20;;
5995;SDS011;3026;53.612;7.278;2023-06-04T03:38:06;5.17;;;2.73;;
5995;SDS011;3026;53.612;7.278;2023-06-04T03:40:33;4.03;;;2.17;;
5995;SDS011;3026;53.612;7.278;2023-06-04T03:43:00;3.67;;;2.20;;
5995;SDS011;3026;53.612;7.278;2023-06-04T03:45:29;2.80;;;2.33;;
5995;SDS011;3026;53.612;7.278;2023-06-04T03:47:57;4.07;;;2.33;;
5995;SDS011;3026;53.612;7.278;2023-06-04T03:50:24;2.60;;;2.10;;
5995;SDS011;3026;53.612;7.278;2023-06-04T03:52:51;3.13;;;2.53;;
5995;SDS011;3026;53.612;7.278;2023-06-04T03:55:17;4.30;;;2.37;;
5995;SDS011;3026;53.612;7.278;2023-06-04T03:57:44;4.37;;;2.33;;
5995;SDS011;3026;53.612;7.278;2023-06-04T04:00:11;5.23;;;2.53;;
5995;SDS011;3026;53.612;7.278;2023-06-04T04:02:40;2.83;;;2.03;;
5995;SDS011;3026;53.612;7.278;2023-06-04T04:05:09;3.53;;;2.50;;
5995;SDS011;3026;53.612;7.278;2023-06-04T04:07:36;3.83;;;2.10;;
5995;SDS011;3026;53.612;7.278;2023-06-04T04:10:03;3.27;;;2.20;;
5995;SDS011;3026;53.612;7.278;2023-06-04T04:12:31;3.87;;;2.23;;
5995;SDS011;3026;53.612;7.278;2023-06-04T04:14:57;4.60;;;2.23;;
5995;SDS011;3026;53.612;7.278;2023-06-04T04:17:25;5.67;;;2.40;;
5995;SDS011;3026;53.612;7.278;2023-06-04T04:19:52;3.33;;;1.97;;
5995;SDS011;3026;53.612;7.278;2023-06-04T04:22:20;4.70;;;2.30;;
5995;SDS011;3026;53.612;7.278;2023-06-04T04:24:46;3.83;;;2.00;;
5995;SDS011;3026;53.612;7.278;2023-06-04T04:27:13;5.27;;;2.60;;
5995;SDS011;3026;53.612;7.278;2023-06-04T04:29:40;4.90;;;1.90;;
5995;SDS011;3026;53.612;7.278;2023-06-04T04:32:08;6.43;;;2.40;;
5995;SDS011;3026;53.612;7.278;2023-06-04T04:34:36;3.23;;;2.30;;
5995;SDS011;3026;53.612;7.278;2023-06-04T04:37:04;5.40;;;2.33;;
5995;SDS011;3026;53.612;7.278;2023-06-04T04:39:34;3.70;;;2.20;;
5995;SDS011;3026;53.612;7.278;2023-06-04T04:42:02;7.77;;;2.60;;
5995;SDS011;3026;53.612;7.278;2023-06-04T04:44:29;4.40;;;2.60;;
5995;SDS011;3026;53.612;7.278;2023-06-04T04:46:56;3.67;;;2.10;;
5995;SDS011;3026;53.612;7.278;2023-06-04T04:49:23;7.73;;;2.40;;
5995;SDS011;3026;53.612;7.278;2023-06-04T04:51:50;5.10;;;2.17;;
5995;SDS011;3026;53.612;7.278;2023-06-04T04:54:17;9.27;;;2.90;;
5995;SDS011;3026;53.612;7.278;2023-06-04T04:56:45;5.60;;;2.77;;
5995;SDS011;3026;53.612;7.278;2023-06-04T04:59:12;9.17;;;2.40;;
5995;SDS011;3026;53.612;7.278;2023-06-04T05:01:39;6.17;;;3.17;;
5995;SDS011;3026;53.612;7.278;2023-06-04T05:04:05;3.93;;;2.43;;
5995;SDS011;3026;53.612;7.278;2023-06-04T05:06:32;4.07;;;2.17;;
5995;SDS011;3026;53.612;7.278;2023-06-04T05:08:59;5.63;;;2.30;;
5995;SDS011;3026;53.612;7.278;2023-06-04T05:11:26;4.20;;;2.10;;
5995;SDS011;3026;53.612;7.278;2023-06-04T05:13:54;6.03;;;2.00;;
5995;SDS011;3026;53.612;7.278;2023-06-04T05:16:20;6.43;;;2.50;;
5995;SDS011;3026;53.612;7.278;2023-06-04T05:18:47;6.03;;;2.60;;
5995;SDS011;3026;53.612;7.278;2023-06-04T05:21:16;5.77;;;2.20;;
5995;SDS011;3026;53.612;7.278;2023-06-04T05:23:43;7.57;;;2.93;;
5995;SDS011;3026;53.612;7.278;2023-06-04T05:26:13;6.97;;;2.53;;
5995;SDS011;3026;53.612;7.278;2023-06-04T05:28:40;5.83;;;2.13;;
5995;SDS011;3026;53.612;7.278;2023-06-04T05:31:10;8.23;;;2.30;;
5995;SDS011;3026;53.612;7.278;2023-06-04T05:33:38;5.00;;;2.70;;
5995;SDS011;3026;53.612;7.278;2023-06-04T05:36:05;6.17;;;2.60;;
5995;SDS011;3026;53.612;7.278;2023-06-04T05:38:32;7.67;;;1.90;;
5995;SDS011;3026;53.612;7.278;2023-06-04T05:41:00;7.67;;;2.73;;
5995;SDS011;3026;53.612;7.278;2023-06-04T05:43:27;6.87;;;2.13;;
5995;SDS011;3026;53.612;7.278;2023-06-04T05:45:54;5.13;;;2.10;;
5995;SDS011;3026;53.612;7.278;2023-06-04T05:48:22;6.67;;;2.80;;
5995;SDS011;3026;53.612;7.278;2023-06-04T05:50:49;9.90;;;2.70;;
5995;SDS011;3026;53.612;7.278;2023-06-04T05:53:16;4.43;;;2.60;;
5995;SDS011;3026;53.612;7.278;2023-06-04T05:55:43;4.60;;;2.30;;
5995;SDS011;3026;53.612;7.278;2023-06-04T05:58:09;9.27;;;2.70;;
5995;SDS011;3026;53.612;7.278;2023-06-04T06:00:36;5.03;;;2.10;;
5995;SDS011;3026;53.612;7.278;2023-06-04T06:03:03;5.80;;;2.50;;
5995;SDS011;3026;53.612;7.278;2023-06-04T06:05:32;4.83;;;2.30;;
5995;SDS011;3026;53.612;7.278;2023-06-04T06:08:00;6.13;;;2.30;;
5995;SDS011;3026;53.612;7.278;2023-06-04T06:10:27;3.67;;;2.13;;
5995;SDS011;3026;53.612;7.278;2023-06-04T06:12:54;6.90;;;2.70;;
5995;SDS011;3026;53.612;7.278;2023-06-04T06:15:21;5.27;;;2.30;;
5995;SDS011;3026;53.612;7.278;2023-06-04T06:17:48;4.90;;;2.23;;
5995;SDS011;3026;53.612;7.278;2023-06-04T06:20:15;7.43;;;2.13;;
5995;SDS011;3026;53.612;7.278;2023-06-04T06:22:44;4.70;;;2.47;;
5995;SDS011;3026;53.612;7.278;2023-06-04T06:25:11;5.77;;;2.10;;
5995;SDS011;3026;53.612;7.278;2023-06-04T06:27:38;5.33;;;2.37;;
5995;SDS011;3026;53.612;7.278;2023-06-04T06:30:06;4.57;;;2.43;;
5995;SDS011;3026;53.612;7.278;2023-06-04T06:32:34;5.63;;;2.27;;
5995;SDS011;3026;53.612;7.278;2023-06-04T06:35:01;4.60;;;2.03;;
5995;SDS011;3026;53.612;7.278;2023-06-04T06:37:28;4.37;;;1.90;;
5995;SDS011;3026;53.612;7.278;2023-06-04T06:39:56;8.10;;;2.50;;
5995;SDS011;3026;53.612;7.278;2023-06-04T06:42:23;4.80;;;2.03;;
5995;SDS011;3026;53.612;7.278;2023-06-04T06:44:50;3.80;;;1.60;;
5995;SDS011;3026;53.612;7.278;2023-06-04T06:47:17;5.57;;;1.73;;
5995;SDS011;3026;53.612;7.278;2023-06-04T06:49:43;4.10;;;1.90;;
5995;SDS011;3026;53.612;7.278;2023-06-04T06:52:10;2.83;;;1.53;;
5995;SDS011;3026;53.612;7.278;2023-06-04T06:54:37;4.17;;;1.43;;
5995;SDS011;3026;53.612;7.278;2023-06-04T06:57:05;4.53;;;1.67;;
5995;SDS011;3026;53.612;7.278;2023-06-04T06:59:34;4.67;;;2.10;;
5995;SDS011;3026;53.612;7.278;2023-06-04T07:02:01;5.87;;;1.83;;
5995;SDS011;3026;53.612;7.278;2023-06-04T07:04:28;5.23;;;2.30;;
5995;SDS011;3026;53.612;7.278;2023-06-04T07:06:55;5.40;;;1.57;;
5995;SDS011;3026;53.612;7.278;2023-06-04T07:09:22;2.37;;;1.63;;
5995;SDS011;3026;53.612;7.278;2023-06-04T07:11:48;3.47;;;2.13;;
5995;SDS011;3026;53.612;7.278;2023-06-04T07:14:17;5.10;;;1.90;;
5995;SDS011;3026;53.612;7.278;2023-06-04T07:16:43;3.83;;;1.60;;
5995;SDS011;3026;53.612;7.278;2023-06-04T07:19:10;2.97;;;1.70;;
5995;SDS011;3026;53.612;7.278;2023-06-04T07:21:37;3.50;;;1.43;;
5995;SDS011;3026;53.612;7.278;2023-06-04T07:24:04;3.30;;;1.73;;
5995;SDS011;3026;53.612;7.278;2023-06-04T07:26:31;4.10;;;1.70;;
5995;SDS011;3026;53.612;7.278;2023-06-04T07:28:58;2.60;;;1.50;;
5995;SDS011;3026;53.612;7.278;2023-06-04T07:31:26;4.93;;;2.20;;
5995;SDS011;3026;53.612;7.278;2023-06-04T07:33:53;4.67;;;2.17;;
5995;SDS011;3026;53.612;7.278;2023-06-04T07:36:20;4.23;;;2.23;;
5995;SDS011;3026;53.612;7.278;2023-06-04T07:38:47;6.87;;;1.87;;
5995;SDS011;3026;53.612;7.278;2023-06-04T07:41:14;3.80;;;1.80;;
5995;SDS011;3026;53.612;7.278;2023-06-04T07:43:42;4.50;;;1.67;;
5995;SDS011;3026;53.612;7.278;2023-06-04T07:46:09;3.37;;;1.97;;
5995;SDS011;3026;53.612;7.278;2023-06-04T07:48:37;3.23;;;1.63;;
5995;SDS011;3026;53.612;7.278;2023-06-04T07:51:04;4.50;;;1.77;;
5995;SDS011;3026;53.612;7.278;2023-06-04T07:53:31;4.30;;;1.93;;
5995;SDS011;3026;53.612;7.278;2023-06-04T07:55:58;2.77;;;1.30;;
5995;SDS011;3026;53.612;7.278;2023-06-04T07:58:25;3.80;;;2.20;;
5995;SDS011;3026;53.612;7.278;2023-06-04T08:00:52;3.17;;;1.40;;
5995;SDS011;3026;53.612;7.278;2023-06-04T08:03:19;2.97;;;1.50;;
5995;SDS011;3026;53.612;7.278;2023-06-04T08:05:48;4.70;;;1.63;;
5995;SDS011;3026;53.612;7.278;2023-06-04T08:08:15;2.70;;;1.67;;
5995;SDS011;3026;53.612;7.278;2023-06-04T08:10:42;5.10;;;1.60;;
5995;SDS011;3026;53.612;7.278;2023-06-04T08:13:08;4.50;;;2.00;;
5995;SDS011;3026;53.612;7.278;2023-06-04T08:15:35;7.07;;;2.40;;
5995;SDS011;3026;53.612;7.278;2023-06-04T08:18:02;4.43;;;1.90;;
5995;SDS011;3026;53.612;7.278;2023-06-04T08:20:29;3.90;;;2.00;;
5995;SDS011;3026;53.612;7.278;2023-06-04T08:22:57;4.63;;;2.10;;
5995;SDS011;3026;53.612;7.278;2023-06-04T08:25:24;5.80;;;1.93;;
5995;SDS011;3026;53.612;7.278;2023-06-04T08:27:51;5.53;;;2.23;;
5995;SDS011;3026;53.612;7.278;2023-06-04T08:30:18;4.03;;;1.90;;
5995;SDS011;3026;53.612;7.278;2023-06-04T08:32:44;4.93;;;1.70;;
5995;SDS011;3026;53.612;7.278;2023-06-04T08:35:11;2.67;;;1.70;;
5995;SDS011;3026;53.612;7.278;2023-06-04T08:37:39;2.50;;;1.90;;
5995;SDS011;3026;53.612;7.278;2023-06-04T08:40:08;3.70;;;2.27;;
5995;SDS011;3026;53.612;7.278;2023-06-04T08:42:37;4.10;;;2.00;;
5995;SDS011;3026;53.612;7.278;2023-06-04T08:45:07;3.67;;;2.07;;
5995;SDS011;3026;53.612;7.278;2023-06-04T08:47:37;1.87;;;1.73;;
5995;SDS011;3026;53.612;7.278;2023-06-04T08:50:07;5.33;;;2.40;;
5995;SDS011;3026;53.612;7.278;2023-06-04T08:52:37;3.00;;;1.93;;
5995;SDS011;3026;53.612;7.278;2023-06-04T08:55:05;6.43;;;2.37;;
5995;SDS011;3026;53.612;7.278;2023-06-04T08:57:35;2.20;;;1.97;;
5995;SDS011;3026;53.612;7.278;2023-06-04T09:00:02;4.57;;;2.10;;
5995;SDS011;3026;53.612;7.278;2023-06-04T09:02:30;3.30;;;2.10;;
5995;SDS011;3026;53.612;7.278;2023-06-04T09:04:57;2.73;;;2.00;;
5995;SDS011;3026;53.612;7.278;2023-06-04T09:07:23;4.37;;;2.03;;
5995;SDS011;3026;53.612;7.278;2023-06-04T09:09:51;4.87;;;2.50;;
5995;SDS011;3026;53.612;7.278;2023-06-04T09:12:21;5.57;;;2.10;;
5995;SDS011;3026;53.612;7.278;2023-06-04T09:14:50;5.17;;;2.03;;
5995;SDS011;3026;53.612;7.278;2023-06-04T09:17:20;3.87;;;2.00;;
5995;SDS011;3026;53.612;7.278;2023-06-04T09:19:48;3.67;;;2.10;;
5995;SDS011;3026;53.612;7.278;2023-06-04T09:22:15;4.43;;;2.03;;
5995;SDS011;3026;53.612;7.278;2023-06-04T09:24:42;3.47;;;2.40;;
5995;SDS011;3026;53.612;7.278;2023-06-04T09:27:12;2.33;;;1.57;;
5995;SDS011;3026;53.612;7.278;2023-06-04T09:29:48;2.53;;;1.80;;
5995;SDS011;3026;53.612;7.278;2023-06-04T09:32:20;5.00;;;1.90;;
5995;SDS011;3026;53.612;7.278;2023-06-04T09:34:47;2.43;;;2.10;;
5995;SDS011;3026;53.612;7.278;2023-06-04T09:37:14;3.87;;;2.23;;
5995;SDS011;3026;53.612;7.278;2023-06-04T09:39:42;4.03;;;2.20;;
5995;SDS011;3026;53.612;7.278;2023-06-04T09:42:09;6.77;;;2.20;;
5995;SDS011;3026;53.612;7.278;2023-06-04T09:44:43;5.67;;;2.47;;
5995;SDS011;3026;53.612;7.278;2023-06-04T09:47:11;5.00;;;2.63;;
5995;SDS011;3026;53.612;7.278;2023-06-04T09:49:40;2.13;;;1.93;;
5995;SDS011;3026;53.612;7.278;2023-06-04T09:52:07;5.70;;;2.13;;
5995;SDS011;3026;53.612;7.278;2023-06-04T09:54:35;4.83;;;2.20;;
5995;SDS011;3026;53.612;7.278;2023-06-04T09:57:03;3.87;;;2.30;;
5995;SDS011;3026;53.612;7.278;2023-06-04T09:59:32;4.43;;;1.87;;
5995;SDS011;3026;53.612;7.278;2023-06-04T10:02:06;2.80;;;1.80;;
5995;SDS011;3026;53.612;7.278;2023-06-04T10:04:34;3.70;;;2.40;;
5995;SDS011;3026;53.612;7.278;2023-06-04T10:07:02;3.23;;;2.07;;
5995;SDS011;3026;53.612;7.278;2023-06-04T10:09:31;3.87;;;2.17;;
5995;SDS011;3026;53.612;7.278;2023-06-04T10:12:00;4.30;;;2.13;;
5995;SDS011;3026;53.612;7.278;2023-06-04T10:14:30;5.93;;;2.30;;
5995;SDS011;3026;53.612;7.278;2023-06-04T10:17:08;7.50;;;2.60;;
5995;SDS011;3026;53.612;7.278;2023-06-04T10:19:37;4.27;;;2.00;;
5995;SDS011;3026;53.612;7.278;2023-06-04T10:22:10;2.57;;;1.57;;
5995;SDS011;3026;53.612;7.278;2023-06-04T10:24:37;2.37;;;1.93;;
5995;SDS011;3026;53.612;7.278;2023-06-04T10:27:05;2.87;;;1.97;;
5995;SDS011;3026;53.612;7.278;2023-06-04T10:29:36;4.33;;;2.03;;
5995;SDS011;3026;53.612;7.278;2023-06-04T10:32:03;6.17;;;1.67;;
5995;SDS011;3026;53.612;7.278;2023-06-04T10:34:32;8.13;;;2.17;;
5995;SDS011;3026;53.612;7.278;2023-06-04T10:36:58;3.80;;;1.63;;
5995;SDS011;3026;53.612;7.278;2023-06-04T10:39:25;5.73;;;2.03;;
5995;SDS011;3026;53.612;7.278;2023-06-04T10:41:58;3.83;;;1.77;;
5995;SDS011;3026;53.612;7.278;2023-06-04T10:44:25;3.17;;;1.67;;
5995;SDS011;3026;53.612;7.278;2023-06-04T10:46:52;3.20;;;2.07;;
5995;SDS011;3026;53.612;7.278;2023-06-04T10:49:25;3.87;;;1.73;;
5995;SDS011;3026;53.612;7.278;2023-06-04T10:51:54;4.77;;;2.37;;
5995;SDS011;3026;53.612;7.278;2023-06-04T10:54:22;5.13;;;2.40;;
5995;SDS011;3026;53.612;7.278;2023-06-04T10:56:51;5.13;;;1.70;;
5995;SDS011;3026;53.612;7.278;2023-06-04T10:59:18;5.07;;;2.30;;
5995;SDS011;3026;53.612;7.278;2023-06-04T11:01:46;6.97;;;2.30;;
5995;SDS011;3026;53.612;7.278;2023-06-04T11:04:19;3.40;;;2.07;;
5995;SDS011;3026;53.612;7.278;2023-06-04T11:06:47;4.80;;;2.10;;
5995;SDS011;3026;53.612;7.278;2023-06-04T11:09:15;5.70;;;1.90;;
5995;SDS011;3026;53.612;7.278;2023-06-04T11:11:44;3.97;;;1.80;;
5995;SDS011;3026;53.612;7.278;2023-06-04T11:14:10;6.00;;;2.43;;
5995;SDS011;3026;53.612;7.278;2023-06-04T11:16:38;3.50;;;1.53;;
5995;SDS011;3026;53.612;7.278;2023-06-04T11:19:05;3.97;;;2.40;;
5995;SDS011;3026;53.612;7.278;2023-06-04T11:21:33;2.97;;;1.90;;
5995;SDS011;3026;53.612;7.278;2023-06-04T11:24:01;4.83;;;2.13;;
5995;SDS011;3026;53.612;7.278;2023-06-04T11:26:31;5.00;;;2.70;;
5995;SDS011;3026;53.612;7.278;2023-06-04T11:28:59;10.63;;;5.40;;
5995;SDS011;3026;53.612;7.278;2023-06-04T11:31:26;5.03;;;2.30;;
5995;SDS011;3026;53.612;7.278;2023-06-04T11:33:53;2.67;;;1.50;;
5995;SDS011;3026;53.612;7.278;2023-06-04T11:36:23;3.63;;;1.80;;
5995;SDS011;3026;53.612;7.278;2023-06-04T11:38:55;2.97;;;1.80;;
5995;SDS011;3026;53.612;7.278;2023-06-04T11:41:23;4.20;;;2.00;;
5995;SDS011;3026;53.612;7.278;2023-06-04T11:43:52;5.53;;;2.13;;
5995;SDS011;3026;53.612;7.278;2023-06-04T11:46:19;2.10;;;1.50;;
5995;SDS011;3026;53.612;7.278;2023-06-04T11:48:47;4.07;;;2.23;;
5995;SDS011;3026;53.612;7.278;2023-06-04T11:51:14;4.63;;;1.80;;
5995;SDS011;3026;53.612;7.278;2023-06-04T11:53:40;5.87;;;1.80;;
5995;SDS011;3026;53.612;7.278;2023-06-04T11:56:07;3.03;;;1.67;;
5995;SDS011;3026;53.612;7.278;2023-06-04T11:58:36;6.77;;;2.20;;
5995;SDS011;3026;53.612;7.278;2023-06-04T12:01:05;4.77;;;1.63;;
5995;SDS011;3026;53.612;7.278;2023-06-04T12:03:33;4.57;;;1.53;;
5995;SDS011;3026;53.612;7.278;2023-06-04T12:06:08;5.07;;;1.67;;
5995;SDS011;3026;53.612;7.278;2023-06-04T12:08:44;7.23;;;2.00;;
5995;SDS011;3026;53.612;7.278;2023-06-04T12:11:27;3.03;;;1.70;;
5995;SDS011;3026;53.612;7.278;2023-06-04T12:13:56;4.93;;;1.60;;
5995;SDS011;3026;53.612;7.278;2023-06-04T12:16:25;5.97;;;1.97;;
5995;SDS011;3026;53.612;7.278;2023-06-04T12:19:03;3.50;;;1.50;;
5995;SDS011;3026;53.612;7.278;2023-06-04T12:21:31;4.97;;;1.90;;
5995;SDS011;3026;53.612;7.278;2023-06-04T12:24:05;2.63;;;1.70;;
5995;SDS011;3026;53.612;7.278;2023-06-04T12:26:33;3.77;;;1.90;;
5995;SDS011;3026;53.612;7.278;2023-06-04T12:29:06;5.73;;;3.07;;
5995;SDS011;3026;53.612;7.278;2023-06-04T12:31:36;3.53;;;2.00;;
5995;SDS011;3026;53.612;7.278;2023-06-04T12:34:03;7.00;;;2.33;;
5995;SDS011;3026;53.612;7.278;2023-06-04T12:36:30;6.87;;;2.03;;
5995;SDS011;3026;53.612;7.278;2023-06-04T12:39:00;5.13;;;2.43;;
5995;SDS011;3026;53.612;7.278;2023-06-04T12:41:28;3.63;;;2.00;;
5995;SDS011;3026;53.612;7.278;2023-06-04T12:43:55;4.30;;;2.00;;
5995;SDS011;3026;53.612;7.278;2023-06-04T12:46:22;3.03;;;2.00;;
5995;SDS011;3026;53.612;7.278;2023-06-04T12:48:51;2.57;;;1.90;;
5995;SDS011;3026;53.612;7.278;2023-06-04T12:51:19;6.43;;;2.13;;
5995;SDS011;3026;53.612;7.278;2023-06-04T12:53:46;4.17;;;2.10;;
5995;SDS011;3026;53.612;7.278;2023-06-04T12:56:14;3.57;;;2.47;;
5995;SDS011;3026;53.612;7.278;2023-06-04T12:58:41;5.77;;;2.17;;
5995;SDS011;3026;53.612;7.278;2023-06-04T13:01:08;2.87;;;2.00;;
5995;SDS011;3026;53.612;7.278;2023-06-04T13:03:36;5.07;;;1.90;;
5995;SDS011;3026;53.612;7.278;2023-06-04T13:06:05;3.30;;;1.77;;
5995;SDS011;3026;53.612;7.278;2023-06-04T13:08:32;2.90;;;1.80;;
5995;SDS011;3026;53.612;7.278;2023-06-04T13:11:00;2.63;;;1.73;;
5995;SDS011;3026;53.612;7.278;2023-06-04T13:13:27;6.07;;;1.80;;
5995;SDS011;3026;53.612;7.278;2023-06-04T13:15:55;1.90;;;1.40;;
5995;SDS011;3026;53.612;7.278;2023-06-04T13:18:26;3.73;;;1.83;;
5995;SDS011;3026;53.612;7.278;2023-06-04T13:21:02;2.27;;;1.70;;
5995;SDS011;3026;53.612;7.278;2023-06-04T13:23:30;3.47;;;2.00;;
5995;SDS011;3026;53.612;7.278;2023-06-04T13:25:57;2.77;;;1.83;;
5995;SDS011;3026;53.612;7.278;2023-06-04T13:28:25;5.97;;;1.90;;
5995;SDS011;3026;53.612;7.278;2023-06-04T13:30:53;4.00;;;1.87;;
5995;SDS011;3026;53.612;7.278;2023-06-04T13:33:19;4.00;;;2.00;;
5995;SDS011;3026;53.612;7.278;2023-06-04T13:35:46;5.67;;;1.83;;
5995;SDS011;3026;53.612;7.278;2023-06-04T13:38:13;5.77;;;1.87;;
5995;SDS011;3026;53.612;7.278;2023-06-04T13:40:42;3.77;;;1.80;;
5995;SDS011;3026;53.612;7.278;2023-06-04T13:43:09;1.87;;;1.60;;
5995;SDS011;3026;53.612;7.278;2023-06-04T13:45:36;4.40;;;2.00;;
5995;SDS011;3026;53.612;7.278;2023-06-04T13:48:05;4.47;;;1.90;;
5995;SDS011;3026;53.612;7.278;2023-06-04T13:50:33;3.53;;;2.27;;
5995;SDS011;3026;53.612;7.278;2023-06-04T13:52:59;5.70;;;2.23;;
5995;SDS011;3026;53.612;7.278;2023-06-04T13:55:26;4.53;;;1.60;;
5995;SDS011;3026;53.612;7.278;2023-06-04T13:57:54;3.37;;;1.90;;
5995;SDS011;3026;53.612;7.278;2023-06-04T14:00:21;5.47;;;2.20;;
5995;SDS011;3026;53.612;7.278;2023-06-04T14:02:48;4.03;;;1.80;;
5995;SDS011;3026;53.612;7.278;2023-06-04T14:05:15;2.87;;;1.70;;
5995;SDS011;3026;53.612;7.278;2023-06-04T14:07:42;3.83;;;1.80;;
5995;SDS011;3026;53.612;7.278;2023-06-04T14:10:10;3.33;;;2.03;;
5995;SDS011;3026;53.612;7.278;2023-06-04T14:12:37;2.57;;;1.70;;
5995;SDS011;3026;53.612;7.278;2023-06-04T14:15:06;3.47;;;2.33;;
5995;SDS011;3026;53.612;7.278;2023-06-04T14:17:36;3.10;;;1.80;;
5995;SDS011;3026;53.612;7.278;2023-06-04T14:20:03;2.77;;;1.60;;
5995;SDS011;3026;53.612;7.278;2023-06-04T14:22:32;5.07;;;1.93;;
5995;SDS011;3026;53.612;7.278;2023-06-04T14:25:00;3.47;;;1.83;;
5995;SDS011;3026;53.612;7.278;2023-06-04T14:27:27;3.63;;;1.90;;
5995;SDS011;3026;53.612;7.278;2023-06-04T14:29:54;2.77;;;1.73;;
5995;SDS011;3026;53.612;7.278;2023-06-04T14:32:22;2.50;;;1.87;;
5995;SDS011;3026;53.612;7.278;2023-06-04T14:34:49;4.40;;;2.07;;
5995;SDS011;3026;53.612;7.278;2023-06-04T14:37:16;3.13;;;1.80;;
5995;SDS011;3026;53.612;7.278;2023-06-04T14:39:44;4.57;;;1.73;;
5995;SDS011;3026;53.612;7.278;2023-06-04T14:42:11;4.47;;;1.80;;
5995;SDS011;3026;53.612;7.278;2023-06-04T14:44:39;2.20;;;1.57;;
5995;SDS011;3026;53.612;7.278;2023-06-04T14:47:06;4.73;;;2.17;;
5995;SDS011;3026;53.612;7.278;2023-06-04T14:49:34;6.33;;;1.80;;
5995;SDS011;3026;53.612;7.278;2023-06-04T14:52:02;6.70;;;2.10;;
5995;SDS011;3026;53.612;7.278;2023-06-04T14:54:29;4.73;;;1.97;;
5995;SDS011;3026;53.612;7.278;2023-06-04T14:56:56;4.33;;;2.17;;
5995;SDS011;3026;53.612;7.278;2023-06-04T14:59:23;4.30;;;1.90;;
5995;SDS011;3026;53.612;7.278;2023-06-04T15:01:49;3.40;;;1.90;;
5995;SDS011;3026;53.612;7.278;2023-06-04T15:04:16;3.30;;;2.03;;
5995;SDS011;3026;53.612;7.278;2023-06-04T15:06:45;2.83;;;2.00;;
5995;SDS011;3026;53.612;7.278;2023-06-04T15:09:11;5.73;;;2.10;;
5995;SDS011;3026;53.612;7.278;2023-06-04T15:11:38;2.97;;;1.73;;
5995;SDS011;3026;53.612;7.278;2023-06-04T15:14:05;3.47;;;2.20;;
5995;SDS011;3026;53.612;7.278;2023-06-04T15:16:32;2.77;;;2.03;;
5995;SDS011;3026;53.612;7.278;2023-06-04T15:18:59;4.50;;;2.57;;